createdAt,value
2018-07-14T07:53:46.457Z,28.76
2018-07-14T07:56:34.802Z,28.78
2018-07-14T07:59:24.372Z,28.79
2018-07-14T08:02:13.691Z,28.81
2018-07-14T08:05:01.858Z,28.83
2018-07-14T08:07:50.969Z,28.79
2018-07-14T08:10:38.087Z,28.83
2018-07-14T08:13:27.275Z,28.82
2018-07-14T08:16:15.917Z,28.78
2018-07-14T08:19:03.958Z,28.80
2018-07-14T08:21:53.209Z,28.88
2018-07-14T08:24:42.777Z,28.92
2018-07-14T08:27:29.289Z,29.00
2018-07-14T08:30:15.443Z,29.04
2018-07-14T08:33:01.591Z,29.09
2018-07-14T08:35:47.475Z,29.08
2018-07-14T08:38:33.076Z,29.14
2018-07-14T08:41:17.893Z,29.13
2018-07-14T08:44:04.055Z,29.17
2018-07-14T08:46:50.316Z,29.14
2018-07-14T08:49:34.956Z,29.12
2018-07-14T08:52:19.709Z,29.18
2018-07-14T08:55:05.770Z,29.16
2018-07-14T08:57:51.764Z,29.14
2018-07-14T09:00:37.676Z,29.09
2018-07-14T09:03:23.260Z,29.09
2018-07-14T09:06:07.983Z,29.11
2018-07-14T09:08:53.310Z,29.02
2018-07-14T09:11:38.846Z,29.07
2018-07-14T09:14:25.680Z,29.05
2018-07-14T09:17:12.144Z,29.02
2018-07-14T09:19:57.333Z,29.12
2018-07-14T09:22:43.700Z,29.02
2018-07-14T09:25:30.628Z,28.95
2018-07-14T09:28:16.252Z,28.96
2018-07-14T09:31:02.947Z,28.96
2018-07-14T09:33:50.644Z,28.99
2018-07-14T09:39:45.134Z,29.07
2018-07-14T09:42:32.780Z,29.08
2018-07-14T09:48:28.877Z,29.16
2018-07-14T09:54:20.141Z,29.43
2018-07-14T09:57:08.103Z,29.52
2018-07-14T09:59:55.832Z,29.57
2018-07-14T10:02:43.981Z,29.62
2018-07-14T10:05:31.038Z,29.72
2018-07-14T10:08:18.835Z,29.79
2018-07-14T10:11:06.642Z,29.87
2018-07-14T10:13:54.624Z,29.99
2018-07-14T10:16:42.256Z,30.07
2018-07-14T10:19:29.110Z,30.03
2018-07-14T10:22:17.392Z,29.96
2018-07-14T10:25:04.435Z,29.75
2018-07-14T10:27:52.387Z,29.25
2018-07-14T10:30:40.090Z,29.10
2018-07-14T10:33:27.592Z,29.12
2018-07-14T10:36:15.404Z,29.05
2018-07-14T10:39:02.659Z,29.08
2018-07-14T10:41:49.870Z,29.02
2018-07-14T10:44:37.734Z,28.98
2018-07-14T10:47:26.506Z,28.98
2018-07-14T10:50:13.912Z,28.96
2018-07-14T10:53:01.438Z,28.94
2018-07-14T10:55:48.856Z,28.83
2018-07-14T10:58:35.960Z,28.79
2018-07-14T11:01:23.282Z,28.68
2018-07-14T11:04:11.054Z,28.70
2018-07-14T11:06:59.266Z,28.70
2018-07-14T11:09:46.710Z,28.68
2018-07-14T11:12:34.322Z,28.72
2018-07-14T11:15:23.269Z,28.73
2018-07-14T11:18:10.944Z,28.53
2018-07-14T11:20:58.640Z,28.51
2018-07-14T11:23:47.573Z,28.49
2018-07-14T11:26:36.886Z,28.57
2018-07-14T11:29:24.331Z,28.61
2018-07-14T11:32:11.965Z,28.68
2018-07-14T11:35:00.047Z,28.73
2018-07-14T11:37:48.927Z,28.80
2018-07-14T11:40:37.823Z,28.82
2018-07-14T11:43:26.136Z,28.85
2018-07-14T11:46:19.937Z,28.84
2018-07-14T11:49:08.459Z,28.81
2018-07-14T11:51:56.779Z,28.76
2018-07-14T11:54:44.872Z,28.73
2018-07-14T11:57:31.923Z,28.66
2018-07-14T12:00:18.619Z,28.69
2018-07-14T12:03:05.935Z,28.66
2018-07-14T12:05:52.384Z,28.66
2018-07-14T12:08:41.678Z,28.66
2018-07-14T12:11:29.234Z,28.69
2018-07-14T12:14:15.867Z,28.73
2018-07-14T12:17:02.355Z,28.71
2018-07-14T12:19:48.654Z,28.72
2018-07-14T12:22:35.357Z,28.73
2018-07-14T12:25:22.186Z,28.75
2018-07-14T12:28:09.847Z,28.75
2018-07-14T12:30:56.423Z,28.72
2018-07-14T12:33:42.867Z,28.71
2018-07-14T12:36:32.094Z,28.74
2018-07-14T12:39:20.478Z,28.71
2018-07-14T12:42:09.137Z,28.66
2018-07-14T12:44:57.662Z,28.65
2018-07-14T12:47:45.657Z,28.65
2018-07-14T12:50:33.971Z,28.64
2018-07-14T12:53:22.367Z,28.63
2018-07-14T12:56:10.319Z,28.62
2018-07-14T12:58:58.920Z,28.59
2018-07-14T13:01:47.695Z,28.60
2018-07-14T13:04:35.628Z,28.60
2018-07-14T13:07:25.200Z,28.60
2018-07-14T13:10:13.865Z,28.61
2018-07-14T13:13:01.642Z,28.63
2018-07-14T13:15:50.461Z,28.65
2018-07-14T13:18:38.548Z,28.68
